Time;durP1;ratioP1;P1;durP2;ratioP2;P2;SDS_P1;SDS_P2;PMS_P1;PMS_P2;Temp;Humidity;BMP_temperature;BMP_pressure;BME280_temperature;BME280_humidity;BME280_pressure;Samples;Min_cycle;Max_cycle;Signal;HPM_P1;HPM_P2
2022/06/14 00:00:53;;;;;;;8.03;4.07;;;18.30;50.00;;;;;;5028603;28;20175;-68
2022/06/14 00:02:20;;;;;;;5.33;4.20;;;18.20;64.20;;;;;;5027651;28;20422;-68
2022/06/14 00:04:46;;;;;;;24.37;5.20;;;18.20;50.80;;;;;;5028302;28;20903;-68
2022/06/14 00:07:11;;;;;;;25.60;5.27;;;18.20;50.70;;;;;;5027521;28;20160;-68
2022/06/14 00:09:37;;;;;;;11.27;5.00;;;18.10;50.70;;;;;;5027231;28;20172;-66
2022/06/14 00:12:03;;;;;;;6.03;3.93;;;18.10;50.80;;;;;;5028261;28;20190;-66
2022/06/14 00:14:29;;;;;;;5.80;3.90;;;18.20;50.80;;;;;;5034233;28;20564;-66
2022/06/14 00:16:54;;;;;;;5.60;3.40;;;18.20;51.50;;;;;;5042812;28;20416;-66
2022/06/14 00:19:20;;;;;;;11.30;4.67;;;18.10;51.40;;;;;;5051210;28;20206;-66
2022/06/14 00:21:45;;;;;;;7.03;4.10;;;18.10;52.10;;;;;;5051154;28;20622;-66
2022/06/14 00:24:13;;;;;;;4.77;4.33;;;18.10;51.90;;;;;;5051198;28;20201;-67
2022/06/14 00:26:38;;;;;;;10.80;4.30;;;18.10;52.20;;;;;;5043826;28;20332;-66
2022/06/14 00:29:04;;;;;;;5.33;4.27;;;18.10;52.00;;;;;;5030697;28;20414;-67
2022/06/14 00:31:30;;;;;;;7.90;3.80;;;18.00;52.50;;;;;;5031013;28;20286;-66
2022/06/14 00:33:57;;;;;;;7.77;4.53;;;17.90;52.30;;;;;;5031602;28;20497;-66
2022/06/14 00:36:34;;;;;;;10.10;4.40;;;17.90;52.90;;;;;;5030507;28;20199;-67
2022/06/14 00:39:04;;;;;;;8.20;4.37;;;17.90;53.00;;;;;;5030085;28;20447;-66
2022/06/14 00:41:39;;;;;;;14.20;5.00;;;17.90;53.80;;;;;;5031349;28;20489;-66
2022/06/14 00:44:12;;;;;;;26.80;7.50;;;17.90;53.90;;;;;;5031197;28;20795;-66
2022/06/14 00:46:49;;;;;;;15.33;4.93;;;17.80;53.90;;;;;;5030775;28;20478;-66
2022/06/14 00:49:22;;;;;;;8.90;4.83;;;17.80;54.00;;;;;;5030325;28;20450;-66
2022/06/14 00:51:56;;;;;;;9.40;4.37;;;17.80;55.50;;;;;;5029962;28;20464;-67
2022/06/14 00:54:31;;;;;;;6.57;4.67;;;17.70;55.00;;;;;;5030509;28;20778;-67
2022/06/14 00:57:26;;;;;;;4.73;4.23;;;17.70;55.50;;;;;;5030739;28;20440;-67
2022/06/14 00:59:56;;;;;;;10.53;4.37;;;17.70;55.70;;;;;;5031096;28;20810;-67
2022/06/14 01:02:36;;;;;;;10.97;4.10;;;17.70;56.50;;;;;;5031251;28;20413;-66
2022/06/14 01:05:08;;;;;;;8.43;5.00;;;17.70;56.90;;;;;;5031309;28;20458;-67
2022/06/14 01:07:40;;;;;;;7.53;4.70;;;17.70;57.60;;;;;;5030426;28;20456;-67
2022/06/14 01:10:12;;;;;;;7.03;4.80;;;17.70;58.20;;;;;;5030683;28;20479;-66
2022/06/14 01:12:42;;;;;;;5.60;4.03;;;17.60;58.70;;;;;;5031678;28;20417;-66
2022/06/14 01:15:23;;;;;;;11.50;4.90;;;17.60;59.30;;;;;;5031235;28;20435;-66
2022/06/14 01:17:53;;;;;;;25.07;5.80;;;17.50;59.70;;;;;;5030326;28;20444;-66
2022/06/14 01:20:21;;;;;;;5.80;4.50;;;17.50;59.80;;;;;;5033019;28;20406;-66
2022/06/14 01:22:48;;;;;;;11.10;4.73;;;17.50;60.40;;;;;;5037731;28;20576;-67
2022/06/14 01:25:15;;;;;;;5.17;4.20;;;17.50;61.00;;;;;;5035535;28;20815;-67
2022/06/14 01:27:41;;;;;;;12.67;4.37;;;17.40;60.80;;;;;;5050584;28;20586;-66
2022/06/14 01:30:15;;;;;;;10.77;4.80;;;17.30;61.40;;;;;;5053069;28;20406;-66
2022/06/14 01:32:57;;;;;;;9.97;5.20;;;17.40;63.50;;;;;;5049937;28;20432;-66
2022/06/14 01:35:26;;;;;;;6.30;4.73;;;17.30;63.60;;;;;;5048054;22;20906;-65
2022/06/14 01:37:54;;;;;;;9.10;5.50;;;17.30;66.00;;;;;;5015379;28;20400;-65
2022/06/14 01:40:31;;;;;;;9.50;4.90;;;17.30;64.60;;;;;;5020205;28;20414;-63
2022/06/14 01:43:15;;;;;;;6.67;4.70;;;17.20;65.30;;;;;;5031718;28;20715;-66
2022/06/14 01:46:05;;;;;;;13.13;5.67;;;17.20;65.80;;;;;;5029789;28;20469;-64
2022/06/14 01:48:51;;;;;;;20.40;5.20;;;17.20;67.10;;;;;;5030485;28;20473;-65
2022/06/14 01:51:51;;;;;;;9.20;5.03;;;17.20;69.30;;;;;;5019137;28;20411;-64
2022/06/14 01:54:42;;;;;;;27.33;5.63;;;17.20;68.50;;;;;;5014287;28;20413;-64
2022/06/14 01:57:37;;;;;;;10.77;4.83;;;17.20;68.60;;;;;;5008738;28;20529;-64
2022/06/14 02:00:22;;;;;;;14.73;5.00;;;17.10;69.60;;;;;;5010680;28;21236;-65
2022/06/14 02:06:00;;;;;;;10.10;5.57;;;17.10;71.20;;;;;;5010838;28;20473;-66
2022/06/14 02:08:32;;;;;;;16.40;6.00;;;17.10;71.70;;;;;;5010368;28;20549;-66
2022/06/14 02:11:31;;;;;;;12.23;5.20;;;17.10;72.40;;;;;;5009828;28;20388;-65
2022/06/14 02:14:13;;;;;;;9.37;4.50;;;17.10;73.20;;;;;;5003357;28;20517;-66
2022/06/14 02:17:08;;;;;;;12.30;4.87;;;17.10;73.50;;;;;;4990022;28;20761;-66
2022/06/14 02:19:52;;;;;;;8.90;4.90;;;17.00;75.10;;;;;;4989960;28;20397;-66
2022/06/14 02:22:27;;;;;;;12.93;6.23;;;17.00;75.20;;;;;;4990288;28;20393;-66
2022/06/14 02:24:59;;;;;;;25.00;5.73;;;17.00;77.60;;;;;;4989884;28;20456;-68
2022/06/14 02:27:30;;;;;;;12.30;5.13;;;17.00;77.60;;;;;;5016421;28;20414;-66
2022/06/14 02:30:01;;;;;;;14.27;5.80;;;17.00;78.00;;;;;;5030109;28;20403;-68
2022/06/14 02:32:44;;;;;;;16.77;5.87;;;16.90;78.60;;;;;;5029540;28;20461;-67
2022/06/14 02:35:20;;;;;;;6.73;4.83;;;16.90;80.00;;;;;;5029693;28;20453;-67
2022/06/14 02:38:00;;;;;;;11.43;5.50;;;16.90;80.50;;;;;;5029727;28;20402;-67
2022/06/14 02:40:41;;;;;;;14.90;6.40;;;17.00;81.20;;;;;;5029547;28;20394;-66
2022/06/14 02:43:26;;;;;;;26.80;6.70;;;16.90;81.20;;;;;;5030005;28;20398;-65
2022/06/14 02:45:54;;;;;;;11.23;5.30;;;16.80;82.40;;;;;;5029281;28;20463;-67
2022/06/14 02:48:31;;;;;;;264.07;25.30;;;16.70;83.10;;;;;;5028550;28;20482;-66
2022/06/14 02:51:21;;;;;;;23.37;7.00;;;16.70;83.10;;;;;;5020734;28;20501;-66
2022/06/14 02:53:54;;;;;;;45.67;7.30;;;16.70;84.50;;;;;;5010061;28;20542;-66
2022/06/14 02:56:29;;;;;;;12.63;5.43;;;16.70;84.20;;;;;;5010545;28;20438;-67
2022/06/14 02:59:05;;;;;;;20.07;6.43;;;16.70;84.90;;;;;;5009959;28;20403;-67
2022/06/14 03:02:01;;;;;;;22.57;6.40;;;16.70;85.90;;;;;;5010813;28;20390;-67
2022/06/14 03:04:35;;;;;;;44.87;7.50;;;16.60;87.30;;;;;;5009629;28;20826;-66
2022/06/14 03:07:09;;;;;;;12.37;6.03;;;16.60;87.20;;;;;;5010085;28;20407;-66
2022/06/14 03:09:37;;;;;;;10.80;5.90;;;16.70;87.40;;;;;;5009138;28;20443;-66
2022/06/14 03:12:19;;;;;;;25.83;6.87;;;16.60;87.80;;;;;;5010278;28;20403;-67
2022/06/14 03:15:09;;;;;;;23.43;7.10;;;16.60;88.10;;;;;;5009244;28;20510;-66
2022/06/14 03:17:35;;;;;;;23.23;6.50;;;16.60;89.20;;;;;;5013514;28;20399;-65
2022/06/14 03:20:10;;;;;;;9.60;5.73;;;16.60;90.00;;;;;;5030615;28;20506;-67
2022/06/14 03:22:45;;;;;;;20.50;6.07;;;16.50;90.00;;;;;;5035432;28;20156;-67
2022/06/14 03:25:25;;;;;;;66.87;10.53;;;16.50;90.20;;;;;;5029140;28;20942;-66
2022/06/14 03:28:06;;;;;;;26.40;6.80;;;16.50;90.90;;;;;;5011354;28;20463;-66
2022/06/14 03:30:37;;;;;;;35.70;7.13;;;16.50;91.10;;;;;;5009485;28;20482;-66
2022/06/14 03:33:17;;;;;;;16.17;6.40;;;16.50;91.40;;;;;;5009350;28;20399;-67
2022/06/14 03:35:49;;;;;;;18.57;5.63;;;16.50;91.60;;;;;;5009298;28;20521;-67
2022/06/14 03:38:21;;;;;;;17.93;5.87;;;16.50;91.70;;;;;;5008534;28;20522;-66
2022/06/14 03:40:48;;;;;;;36.33;8.97;;;16.60;92.10;;;;;;5009063;28;20415;-67
2022/06/14 03:43:14;;;;;;;15.27;5.50;;;16.60;92.30;;;;;;5009380;28;20403;-67
2022/06/14 03:45:59;;;;;;;20.37;7.03;;;16.60;92.50;;;;;;5009443;28;20446;-67
2022/06/14 03:48:26;;;;;;;7.70;5.33;;;16.70;92.70;;;;;;5008249;28;20387;-67
2022/06/14 03:51:06;;;;;;;10.73;6.20;;;16.70;92.40;;;;;;5009585;28;20501;-65
2022/06/14 03:53:56;;;;;;;14.00;5.60;;;16.80;93.00;;;;;;5007836;28;20418;-65
2022/06/14 03:56:40;;;;;;;8.60;5.27;;;16.80;93.30;;;;;;5009087;28;20471;-66
2022/06/14 03:59:24;;;;;;;19.83;7.13;;;17.00;93.40;;;;;;5008857;28;20387;-66
2022/06/14 04:02:07;;;;;;;48.60;8.17;;;17.10;93.20;;;;;;5007145;28;20470;-66
2022/06/14 04:04:51;;;;;;;13.27;6.50;;;17.00;93.20;;;;;;5008889;28;20478;-64
2022/06/14 04:07:34;;;;;;;27.37;7.70;;;17.20;93.10;;;;;;5008646;28;20542;-65
2022/06/14 04:10:05;;;;;;;38.10;7.40;;;17.20;93.20;;;;;;5008247;28;20391;-67
2022/06/14 04:12:56;;;;;;;29.40;8.30;;;17.40;93.00;;;;;;5009400;28;20935;-66
2022/06/14 04:15:24;;;;;;;26.60;8.17;;;17.60;92.90;;;;;;5009216;28;20481;-65
2022/06/14 04:18:34;;;;;;;46.40;8.90;;;17.70;92.80;;;;;;5006514;28;20471;-66
2022/06/14 04:21:30;;;;;;;18.00;5.93;;;17.90;92.60;;;;;;4999254;28;20420;-66
2022/06/14 04:24:19;;;;;;;27.07;5.83;;;17.90;92.60;;;;;;5009579;28;20478;-66
2022/06/14 04:27:07;;;;;;;56.53;11.30;;;18.10;94.30;;;;;;5009133;28;20470;-65
2022/06/14 04:30:01;;;;;;;15.30;6.43;;;18.20;91.90;;;;;;5002067;28;20808;-66
2022/06/14 04:32:55;;;;;;;21.03;7.43;;;18.30;91.90;;;;;;5005729;28;20763;-67
2022/06/14 04:35:36;;;;;;;22.50;7.50;;;18.40;91.00;;;;;;5009993;28;20443;-66
2022/06/14 04:38:14;;;;;;;16.20;6.70;;;18.50;90.80;;;;;;5012167;28;20485;-65
2022/06/14 04:40:49;;;;;;;13.97;6.07;;;18.50;90.50;;;;;;5010097;28;20427;-66
2022/06/14 04:43:21;;;;;;;19.57;8.13;;;18.60;89.60;;;;;;5008666;28;20541;-67
2022/06/14 04:45:54;;;;;;;10.73;6.40;;;18.60;88.10;;;;;;5008196;28;20481;-69
2022/06/14 04:48:34;;;;;;;25.00;7.53;;;18.60;87.60;;;;;;5062776;28;20448;-64
2022/06/14 04:51:07;;;;;;;52.87;9.00;;;18.80;86.70;;;;;;5067252;28;20408;-66
2022/06/14 04:53:46;;;;;;;38.20;8.43;;;18.80;85.90;;;;;;5068541;28;20480;-67
2022/06/14 04:56:20;;;;;;;33.93;6.67;;;18.90;86.00;;;;;;5067932;28;20440;-67
2022/06/14 04:59:11;;;;;;;12.40;5.63;;;19.00;83.70;;;;;;5067225;28;20408;-68
2022/06/14 05:01:53;;;;;;;19.83;7.07;;;19.20;84.10;;;;;;5059710;28;20500;-67
2022/06/14 05:04:32;;;;;;;27.73;7.43;;;19.20;82.60;;;;;;5048431;28;20901;-69
2022/06/14 05:07:10;;;;;;;21.87;6.90;;;19.30;82.30;;;;;;5047854;28;20842;-66
2022/06/14 05:09:41;;;;;;;39.23;8.33;;;19.50;81.50;;;;;;5052381;28;20465;-68
2022/06/14 05:12:27;;;;;;;21.63;7.10;;;19.60;81.00;;;;;;5067941;28;20451;-68
2022/06/14 05:15:17;;;;;;;11.60;5.60;;;19.60;79.40;;;;;;5062368;28;20440;-69
2022/06/14 05:18:01;;;;;;;14.03;6.47;;;19.80;79.60;;;;;;5066529;28;20533;-67
2022/06/14 05:21:08;;;;;;;24.30;8.27;;;19.90;92.70;;;;;;5067998;28;20463;-68
2022/06/14 05:23:46;;;;;;;18.03;5.93;;;19.90;76.20;;;;;;5062652;28;20555;-67
2022/06/14 05:26:27;;;;;;;11.60;6.70;;;20.10;75.00;;;;;;5071646;28;20458;-68
2022/06/14 05:29:10;;;;;;;10.23;6.23;;;20.20;73.60;;;;;;5080165;28;20467;-68
2022/06/14 05:32:06;;;;;;;38.90;8.17;;;20.20;72.70;;;;;;5066471;28;20421;-68
2022/06/14 05:34:57;;;;;;;8.50;6.50;;;20.10;70.00;;;;;;5045360;28;20452;-68
2022/06/14 05:37:57;;;;;;;14.10;7.23;;;19.80;68.90;;;;;;5054201;28;21459;-68
2022/06/14 05:41:02;;;;;;;7.20;6.20;;;19.70;66.80;;;;;;5061069;28;20416;-68
2022/06/14 05:43:33;;;;;;;9.73;7.07;;;19.30;66.40;;;;;;4983550;28;20936;-68
2022/06/14 05:46:05;;;;;;;14.27;7.07;;;19.30;67.30;;;;;;5043193;28;20551;-67
2022/06/14 05:48:37;;;;;;;9.33;7.07;;;19.40;67.60;;;;;;5065913;28;20500;-68
2022/06/14 05:51:08;;;;;;;8.93;6.83;;;19.20;65.10;;;;;;5065980;28;20908;-67
2022/06/14 05:53:46;;;;;;;10.33;6.80;;;18.90;66.30;;;;;;5067257;28;20979;-68
2022/06/14 05:56:22;;;;;;;9.57;6.67;;;18.90;68.10;;;;;;5063131;28;20507;-68
2022/06/14 05:59:13;;;;;;;8.27;5.93;;;19.10;67.40;;;;;;5066463;28;20427;-68
2022/06/14 06:01:51;;;;;;;8.60;5.90;;;19.20;66.40;;;;;;5066830;28;20407;-68
2022/06/14 06:04:29;;;;;;;33.97;7.27;;;19.30;68.60;;;;;;5067481;28;20757;-67
2022/06/14 06:07:03;;;;;;;25.03;7.80;;;19.60;68.60;;;;;;5066991;28;20443;-66
2022/06/14 06:09:31;;;;;;;8.93;6.07;;;20.30;71.20;;;;;;5065975;28;20446;-67
2022/06/14 06:12:12;;;;;;;25.93;7.73;;;20.50;89.10;;;;;;5066396;28;20405;-66
2022/06/14 06:14:49;;;;;;;11.07;6.60;;;20.40;68.90;;;;;;5071025;28;20485;-66
2022/06/14 06:17:29;;;;;;;13.53;6.10;;;20.40;66.70;;;;;;5079274;28;20507;-67
2022/06/14 06:20:25;;;;;;;15.70;6.10;;;19.40;63.50;;;;;;5088053;28;20441;-68
2022/06/14 06:23:11;;;;;;;16.73;7.40;;;19.20;67.90;;;;;;5088126;28;20967;-68
2022/06/14 06:25:41;;;;;;;10.50;6.10;;;19.40;71.80;;;;;;5087197;28;20503;-68
2022/06/14 06:28:28;;;;;;;25.83;8.93;;;19.70;71.60;;;;;;5068581;28;20194;-67
2022/06/14 06:31:20;;;;;;;10.50;6.40;;;20.70;72.80;;;;;;5069145;28;20492;-69
2022/06/14 06:33:49;;;;;;;8.80;7.20;;;20.40;69.00;;;;;;5069827;28;20389;-69
2022/06/14 06:36:37;;;;;;;12.70;6.37;;;19.80;64.60;;;;;;5071453;28;20425;-68
2022/06/14 06:39:37;;;;;;;11.73;6.07;;;19.90;66.00;;;;;;5072649;28;20436;-68
2022/06/14 06:42:39;;;;;;;10.70;5.80;;;19.90;64.20;;;;;;5071279;28;20415;-68
2022/06/14 06:45:05;;;;;;;9.70;5.90;;;20.30;63.90;;;;;;5038010;28;20994;-69
2022/06/14 06:47:42;;;;;;;13.13;6.70;;;20.00;60.80;;;;;;5068619;28;20455;-69
2022/06/14 06:50:33;;;;;;;10.13;5.80;;;19.80;58.10;;;;;;5073180;28;20158;-68
2022/06/14 06:53:18;;;;;;;17.83;8.97;;;19.50;57.60;;;;;;5072001;28;20970;-67
2022/06/14 06:55:58;;;;;;;11.07;5.97;;;21.00;62.60;;;;;;5070120;28;20740;-69
2022/06/14 06:58:32;;;;;;;9.70;5.77;;;20.70;57.70;;;;;;5071607;28;20397;-69
2022/06/14 07:01:02;;;;;;;8.63;4.73;;;20.50;56.30;;;;;;5069666;28;20418;-69
2022/06/14 07:03:44;;;;;;;8.80;6.03;;;20.10;54.90;;;;;;5071520;28;20408;-68
2022/06/14 07:06:33;;;;;;;6.60;5.03;;;20.30;55.40;;;;;;5071376;28;20456;-68
2022/06/14 07:09:04;;;;;;;8.83;5.60;;;19.80;53.30;;;;;;5070587;28;20510;-68
2022/06/14 07:11:35;;;;;;;8.07;5.50;;;20.10;53.70;;;;;;5073014;28;20515;-68
2022/06/14 07:14:29;;;;;;;9.03;5.97;;;19.80;54.00;;;;;;5069693;28;20388;-68
2022/06/14 07:17:28;;;;;;;8.90;6.53;;;19.80;53.00;;;;;;5062569;28;20405;-69
2022/06/14 07:20:34;;;;;;;7.47;6.73;;;19.80;55.40;;;;;;5076218;28;20487;-70
2022/06/14 07:23:18;;;;;;;12.37;5.50;;;19.30;52.20;;;;;;5079007;28;21143;-67
2022/06/14 07:26:06;;;;;;;11.53;5.80;;;19.70;52.20;;;;;;5081227;28;20460;-70
2022/06/14 07:28:51;;;;;;;7.23;5.70;;;19.60;52.60;;;;;;5100705;28;20400;-68
2022/06/14 07:31:32;;;;;;;7.47;6.10;;;19.50;52.70;;;;;;5103088;28;20403;-69
2022/06/14 07:33:59;;;;;;;6.07;4.80;;;19.30;52.70;;;;;;5100119;28;20396;-69
2022/06/14 07:36:33;;;;;;;6.67;5.80;;;19.50;54.20;;;;;;5053003;22;20498;-69
2022/06/14 07:39:17;;;;;;;9.40;5.40;;;19.90;56.30;;;;;;5022896;28;20733;-67
2022/06/14 07:41:54;;;;;;;9.43;5.20;;;19.80;54.40;;;;;;5026081;28;20505;-67
2022/06/14 07:44:38;;;;;;;12.60;5.80;;;20.00;54.30;;;;;;5027727;28;20402;-70
2022/06/14 07:47:19;;;;;;;11.07;5.80;;;20.00;54.10;;;;;;5007632;28;20450;-69
2022/06/14 07:49:48;;;;;;;7.70;5.47;;;20.30;55.20;;;;;;5008173;28;20410;-69
2022/06/14 07:52:35;;;;;;;13.80;6.87;;;20.50;54.70;;;;;;5000586;28;20419;-69
2022/06/14 07:55:16;;;;;;;7.57;5.67;;;20.80;55.50;;;;;;5007803;28;20755;-69
2022/06/14 07:57:45;;;;;;;7.83;5.40;;;21.10;73.70;;;;;;5007634;28;20487;-69
2022/06/14 08:03:11;;;;;;;16.67;5.70;;;20.90;55.10;;;;;;5006511;28;20548;-69
2022/06/14 08:05:40;;;;;;;12.13;6.03;;;21.10;54.80;;;;;;5008276;28;20837;-69
2022/06/14 08:08:11;;;;;;;15.30;6.23;;;21.20;54.90;;;;;;5007360;28;20457;-69
2022/06/14 08:10:42;;;;;;;8.93;5.80;;;20.90;52.80;;;;;;5007729;28;20399;-70
2022/06/14 08:13:11;;;;;;;11.80;6.07;;;21.10;55.60;;;;;;5007698;28;20753;-70
2022/06/14 08:15:53;;;;;;;10.93;5.80;;;21.10;53.50;;;;;;5007822;28;20748;-68
2022/06/14 08:18:48;;;;;;;10.47;6.53;;;21.30;54.10;;;;;;5006820;28;20485;-68
2022/06/14 08:21:23;;;;;;;9.50;5.70;;;21.50;54.40;;;;;;5003607;28;21262;-69
2022/06/14 08:24:18;;;;;;;12.43;5.43;;;21.50;54.00;;;;;;5007564;28;20429;-69
2022/06/14 08:27:09;;;;;;;7.33;5.83;;;21.50;51.10;;;;;;5007449;28;20450;-68
2022/06/14 08:29:42;;;;;;;9.30;5.20;;;21.20;51.90;;;;;;4988458;28;20381;-68
2022/06/14 08:32:12;;;;;;;7.20;5.83;;;21.40;51.50;;;;;;4987962;28;20404;-68
2022/06/14 08:35:04;;;;;;;10.53;5.80;;;21.60;51.90;;;;;;4989336;28;20824;-69
2022/06/14 08:38:05;;;;;;;11.70;6.20;;;21.60;50.10;;;;;;4983793;28;20484;-68
2022/06/14 08:40:55;;;;;;;6.50;5.90;;;21.80;51.70;;;;;;4977016;28;20904;-69
2022/06/14 08:43:34;;;;;;;7.47;4.93;;;22.60;50.70;;;;;;5011120;28;20407;-68
2022/06/14 08:46:19;;;;;;;8.80;5.07;;;22.10;47.00;;;;;;5010569;28;20548;-69
2022/06/14 08:49:06;;;;;;;16.03;6.13;;;22.30;46.30;;;;;;5010837;28;20785;-68
2022/06/14 08:51:42;;;;;;;8.63;4.83;;;22.20;44.40;;;;;;5010196;28;20418;-68
2022/06/14 08:54:26;;;;;;;9.50;5.77;;;22.20;42.90;;;;;;5010268;28;21032;-68
2022/06/14 08:57:03;;;;;;;10.73;4.70;;;21.90;40.40;;;;;;5025832;28;20452;-69
2022/06/14 08:59:57;;;;;;;5.67;4.87;;;22.30;40.80;;;;;;5030652;28;20409;-68
2022/06/14 09:02:50;;;;;;;6.90;4.67;;;22.40;39.90;;;;;;5030580;28;20488;-68
2022/06/14 09:05:43;;;;;;;10.67;5.40;;;22.30;36.90;;;;;;5030727;28;20457;-68
2022/06/14 09:08:34;;;;;;;7.70;4.77;;;22.40;37.00;;;;;;5029879;28;20394;-68
2022/06/14 09:11:29;;;;;;;6.43;4.20;;;22.50;35.10;;;;;;5030616;28;20407;-69
2022/06/14 09:14:03;;;;;;;18.03;5.20;;;23.10;35.40;;;;;;5031061;28;20409;-68
2022/06/14 09:16:48;;;;;;;10.10;4.90;;;22.60;31.60;;;;;;5029325;28;20539;-67
2022/06/14 09:19:33;;;;;;;9.83;4.37;;;22.90;32.30;;;;;;5030180;28;20418;-68
2022/06/14 09:22:14;;;;;;;8.80;4.60;;;22.90;29.60;;;;;;5031188;28;20403;-67
2022/06/14 09:24:51;;;;;;;10.80;5.00;;;22.80;27.60;;;;;;5031127;28;20459;-68
2022/06/14 09:27:53;;;;;;;7.30;4.87;;;22.90;27.10;;;;;;5018001;28;20757;-68
2022/06/14 09:30:38;;;;;;;6.50;4.03;;;23.10;28.10;;;;;;4986714;28;20411;-69
2022/06/14 09:33:22;;;;;;;6.10;4.23;;;23.70;29.50;;;;;;5010943;28;20390;-68
2022/06/14 09:36:11;;;;;;;4.70;4.00;;;23.60;26.30;;;;;;5011070;28;20516;-68
2022/06/14 09:39:18;;;;;;;10.70;4.50;;;23.00;23.30;;;;;;5010236;28;20422;-69
2022/06/14 09:42:15;;;;;;;13.33;5.00;;;23.30;24.70;;;;;;4993653;28;20897;-68
2022/06/14 09:44:59;;;;;;;6.83;4.33;;;23.70;25.80;;;;;;5010395;28;21092;-69
2022/06/14 09:47:33;;;;;;;5.67;4.27;;;24.10;26.20;;;;;;5009877;28;20392;-68
2022/06/14 09:50:36;;;;;;;5.10;3.90;;;23.30;22.20;;;;;;5010217;28;20413;-68
2022/06/14 09:53:22;;;;;;;9.97;4.77;;;23.00;20.40;;;;;;5009949;28;21115;-69
2022/06/14 09:56:00;;;;;;;13.13;4.73;;;23.00;20.20;;;;;;5009998;28;21359;-69
2022/06/14 09:58:43;;;;;;;4.93;3.87;;;23.60;21.30;;;;;;5009720;28;20403;-68
2022/06/14 10:01:29;;;;;;;7.97;3.70;;;23.20;18.80;;;;;;5009705;28;20410;-68
2022/06/14 10:04:13;;;;;;;9.93;5.20;;;23.10;18.90;;;;;;5010419;28;20511;-68
2022/06/14 10:06:48;;;;;;;5.40;3.83;;;23.80;19.70;;;;;;5010035;28;20497;-69
2022/06/14 10:09:17;;;;;;;8.30;5.10;;;23.80;17.20;;;;;;5009402;28;20406;-69
2022/06/14 10:12:01;;;;;;;5.00;3.87;;;23.80;16.20;;;;;;5010126;28;20423;-68
2022/06/14 10:14:27;;;;;;;5.20;4.30;;;23.80;26.00;;;;;;5010137;28;20494;-68
2022/06/14 10:17:30;;;;;;;8.03;3.60;;;23.60;14.20;;;;;;5015878;28;20484;-69
2022/06/14 10:19:58;;;;;;;4.97;3.60;;;23.60;12.70;;;;;;5029699;28;20647;-69
2022/06/14 10:22:57;;;;;;;4.40;4.00;;;23.70;12.30;;;;;;5029925;28;20873;-69
2022/06/14 10:28:58;;;;;;;6.13;4.13;;;23.90;10.00;;;;;;4990233;28;20422;-68
2022/06/14 10:31:49;;;;;;;10.20;4.20;;;23.70;8.20;;;;;;4984892;28;20404;-68
2022/06/14 10:34:19;;;;;;;7.27;4.97;;;23.60;8.10;;;;;;4991540;28;20397;-70
2022/06/14 10:36:57;;;;;;;6.77;3.87;;;23.20;6.60;;;;;;4994325;28;20458;-70
2022/06/14 10:39:45;;;;;;;6.77;3.90;;;23.00;5.10;;;;;;5010116;28;20395;-69
2022/06/14 10:42:34;;;;;;;6.23;4.17;;;22.80;3.70;;;;;;5010916;28;20473;-68
2022/06/14 10:45:07;;;;;;;9.63;3.90;;;22.70;3.30;;;;;;5010152;28;20419;-68
2022/06/14 10:47:59;;;;;;;6.33;4.30;;;22.40;2.20;;;;;;5009299;28;20439;-69
2022/06/14 10:50:50;;;;;;;7.27;4.03;;;22.60;2.10;;;;;;5012553;28;20423;-68
2022/06/14 10:53:15;;;;;;;8.20;4.30;;;23.00;2.70;;;;;;5010163;28;20426;-69
2022/06/14 10:56:00;;;;;;;5.40;4.10;;;23.30;3.00;;;;;;5009245;28;20419;-71
2022/06/14 10:59:04;;;;;;;7.53;4.13;;;23.60;3.00;;;;;;5009095;28;20910;-70
2022/06/14 11:01:51;;;;;;;5.53;3.20;;;23.60;3.00;;;;;;4991628;28;20429;-67
2022/06/14 11:04:43;;;;;;;4.93;3.63;;;23.70;3.00;;;;;;5009447;28;20399;-67
2022/06/14 11:07:40;;;;;;;11.73;4.13;;;23.60;1.60;;;;;;5008694;28;20968;-69
2022/06/14 11:10:50;;;;;;;5.60;4.30;;;23.50;1.00;;;;;;5008455;28;20705;-69
2022/06/14 11:13:21;;;;;;;7.50;4.33;;;23.50;1.00;;;;;;4929229;29;20546;-69
2022/06/14 11:16:01;;;;;;;5.77;3.90;;;23.40;1.00;;;;;;5001185;28;20446;-69
2022/06/14 11:18:48;;;;;;;8.03;4.30;;;23.30;1.00;;;;;;5008917;28;20418;-69
2022/06/14 11:21:20;;;;;;;8.83;4.30;;;23.10;1.00;;;;;;5008397;28;20926;-68
2022/06/14 11:24:04;;;;;;;4.60;4.20;;;23.20;1.00;;;;;;5009062;28;20410;-69
2022/06/14 11:26:45;;;;;;;6.13;4.07;;;23.30;1.00;;;;;;5008262;28;20451;-68
2022/06/14 11:29:12;;;;;;;5.83;4.23;;;23.40;1.00;;;;;;5008285;28;20434;-68
2022/06/14 11:31:49;;;;;;;5.20;4.10;;;23.50;1.00;;;;;;5008895;28;20414;-68
2022/06/14 11:34:20;;;;;;;8.77;4.07;;;23.70;1.00;;;;;;5009804;28;20172;-68
2022/06/14 11:37:07;;;;;;;9.20;5.77;;;23.50;1.00;;;;;;5008466;28;20461;-68
2022/06/14 11:39:33;;;;;;;7.13;3.30;;;23.50;1.00;;;;;;5007774;28;20498;-68
2022/06/14 11:42:05;;;;;;;6.17;3.80;;;23.80;1.40;;;;;;5008873;28;20506;-67
2022/06/14 11:44:56;;;;;;;7.77;4.30;;;23.90;1.00;;;;;;5009129;28;20233;-67
2022/06/14 11:47:45;;;;;;;10.37;4.70;;;23.80;1.00;;;;;;5008107;28;20395;-68
2022/06/14 11:50:21;;;;;;;4.93;3.60;;;23.70;1.00;;;;;;5008805;28;20863;-68
2022/06/14 11:52:53;;;;;;;6.77;3.93;;;23.90;1.10;;;;;;5008530;28;20481;-67
2022/06/14 11:55:34;;;;;;;8.53;4.40;;;24.20;2.00;;;;;;5008678;28;20429;-69
2022/06/14 11:58:15;;;;;;;5.20;4.10;;;24.30;1.30;;;;;;4990417;28;20418;-70
2022/06/14 12:00:51;;;;;;;8.00;4.67;;;24.30;1.50;;;;;;5005533;28;20427;-68
2022/06/14 12:03:25;;;;;;;6.13;3.83;;;24.00;1.00;;;;;;5008314;28;20428;-68
2022/06/14 12:06:06;;;;;;;11.63;4.40;;;23.60;1.00;;;;;;5008647;28;20985;-69
2022/06/14 12:09:12;;;;;;;5.63;3.97;;;23.60;1.00;;;;;;5007738;28;20522;-69
2022/06/14 12:11:39;;;;;;;6.80;4.40;;;23.60;1.00;;;;;;5012438;28;20453;-69
2022/06/14 12:14:49;;;;;;;9.73;4.23;;;23.50;1.00;;;;;;5012447;28;20498;-68
2022/06/14 12:17:32;;;;;;;7.27;4.63;;;23.80;1.00;;;;;;5010733;28;20458;-69
2022/06/14 12:20:27;;;;;;;10.00;4.00;;;23.70;1.00;;;;;;5011726;28;20839;-70
2022/06/14 12:23:15;;;;;;;9.50;3.80;;;23.90;1.00;;;;;;5008562;28;20431;-68
2022/06/14 12:29:05;;;;;;;4.93;4.00;;;24.50;1.00;;;;;;4991915;28;20419;-67
2022/06/14 12:31:41;;;;;;;4.43;3.90;;;24.60;1.00;;;;;;4978390;28;20926;-68
2022/06/14 12:34:32;;;;;;;9.50;4.87;;;24.80;1.00;;;;;;4992255;28;20885;-67
2022/06/14 12:37:21;;;;;;;7.90;4.27;;;24.80;1.00;;;;;;4997326;28;20439;-68
2022/06/14 12:40:08;;;;;;;6.03;4.50;;;24.70;1.00;;;;;;5011168;28;20494;-67
2022/06/14 12:42:43;;;;;;;7.40;4.17;;;24.50;1.00;;;;;;5011755;28;20921;-67
2022/06/14 12:45:33;;;;;;;9.20;4.50;;;24.10;1.00;;;;;;5011925;28;20494;-67
2022/06/14 12:48:29;;;;;;;7.77;4.13;;;24.30;1.00;;;;;;5011164;28;20391;-67
2022/06/14 12:51:01;;;;;;;6.20;3.73;;;24.50;1.00;;;;;;5011505;28;20399;-68
2022/06/14 12:53:39;;;;;;;6.10;4.00;;;24.50;1.00;;;;;;5011755;28;20400;-68
2022/06/14 12:56:19;;;;;;;5.47;4.57;;;24.50;1.00;;;;;;5018954;28;20725;-67
2022/06/14 12:58:57;;;;;;;5.43;3.60;;;24.40;1.00;;;;;;5030862;28;20405;-67
2022/06/14 13:01:50;;;;;;;8.33;4.23;;;24.20;1.00;;;;;;5030706;28;20406;-68
2022/06/14 13:04:17;;;;;;;7.57;4.27;;;24.00;1.00;;;;;;5031246;28;20387;-67
2022/06/14 13:06:43;;;;;;;7.50;4.70;;;24.20;1.00;;;;;;5028576;28;20454;-66
2022/06/14 13:09:24;;;;;;;10.77;3.90;;;24.30;1.00;;;;;;5028377;28;20476;-67
2022/06/14 13:12:19;;;;;;;4.70;4.13;;;24.00;1.00;;;;;;5030847;28;20570;-67
2022/06/14 13:14:58;;;;;;;13.87;4.73;;;24.10;1.00;;;;;;5030399;28;20748;-67
2022/06/14 13:17:46;;;;;;;12.90;5.47;;;24.50;1.00;;;;;;5029938;28;20448;-68
2022/06/14 13:20:46;;;;;;;8.67;4.47;;;24.80;1.00;;;;;;5030108;28;20885;-69
2022/06/14 13:23:55;;;;;;;10.07;4.10;;;25.10;1.00;;;;;;5030146;28;20410;-68
2022/06/14 13:26:58;;;;;;;9.60;4.17;;;25.00;1.00;;;;;;4973691;28;20460;-68
2022/06/14 13:29:48;;;;;;;7.40;3.70;;;24.10;1.00;;;;;;5010339;28;20409;-68
2022/06/14 13:32:35;;;;;;;7.70;4.40;;;24.20;2.30;;;;;;5010469;28;20466;-69
2022/06/14 13:35:37;;;;;;;9.27;4.20;;;24.40;1.00;;;;;;5010428;28;20450;-67
2022/06/14 13:38:27;;;;;;;4.40;3.33;;;24.70;1.00;;;;;;5009198;28;20490;-69
2022/06/14 13:41:06;;;;;;;14.60;4.90;;;25.00;1.00;;;;;;5010587;28;20851;-68
2022/06/14 13:43:38;;;;;;;6.03;3.83;;;24.90;1.00;;;;;;5011069;28;20479;-69
2022/06/14 13:46:31;;;;;;;9.53;4.90;;;24.90;1.00;;;;;;5009946;28;20480;-68
2022/06/14 13:49:15;;;;;;;16.43;4.40;;;25.00;1.00;;;;;;5009627;28;20773;-69
2022/06/14 13:51:44;;;;;;;15.13;5.07;;;25.10;1.00;;;;;;5010234;28;20407;-66
2022/06/14 13:54:33;;;;;;;4.17;3.70;;;25.00;1.00;;;;;;5010087;28;20407;-67
2022/06/14 13:57:17;;;;;;;4.53;3.67;;;25.00;1.00;;;;;;5009938;28;20441;-67
2022/06/14 13:59:47;;;;;;;3.97;3.53;;;24.70;1.00;;;;;;5010435;28;20502;-69
2022/06/14 14:02:46;;;;;;;7.00;4.00;;;24.70;1.00;;;;;;5010741;28;20428;-69
2022/06/14 14:05:22;;;;;;;7.10;3.57;;;24.70;1.00;;;;;;5010207;28;20488;-68
2022/06/14 14:07:50;;;;;;;7.70;4.13;;;24.70;1.00;;;;;;5009498;28;20478;-68